Terminal Aerodrome Forecast
Issued by NWS Cleveland, OH

Home | Current Version | Previous Version | Text Only | Print | Product List | Glossary Off
Versions: 1 2 3 4 5 6 7 8 9 10 11 12 13 14

000
FTUS41 KCLE 251740
TAFYNG
TAF
KYNG 251740Z 2518/2618 25010KT P6SM BKN040 OVC070
     FM260000 20004KT P6SM BKN050
     FM260300 27006KT P6SM VCSH BKN028 OVC040
     FM261400 29006KT P6SM VCSH BKN025 OVC035=

USA.gov is the U.S. government's official web portal to all federal, state and local government web resources and services.